createdAt,value
2018-09-25T00:00:13.370Z,22.32
2018-09-25T00:00:50.604Z,22.32
2018-09-25T00:01:27.811Z,22.32
2018-09-25T00:02:05.060Z,22.31
2018-09-25T00:02:42.162Z,22.31
2018-09-25T00:03:19.410Z,22.31
2018-09-25T00:03:56.649Z,22.31
2018-09-25T00:04:33.792Z,22.31
2018-09-25T00:05:10.921Z,22.31
2018-09-25T00:05:48.179Z,22.31
2018-09-25T00:06:25.424Z,22.30
2018-09-25T00:07:02.665Z,22.31
2018-09-25T00:07:39.836Z,22.30
2018-09-25T00:08:17.084Z,22.29
2018-09-25T00:08:54.369Z,22.29
2018-09-25T00:09:31.547Z,22.29
2018-09-25T00:10:08.631Z,22.29
2018-09-25T00:10:45.884Z,22.29
2018-09-25T00:11:23.161Z,22.28
2018-09-25T00:12:00.623Z,22.28
2018-09-25T00:12:37.935Z,22.28
2018-09-25T00:13:15.173Z,22.27
2018-09-25T00:13:52.507Z,22.28
2018-09-25T00:14:29.640Z,22.29
2018-09-25T00:15:06.861Z,22.29
2018-09-25T00:15:44.050Z,22.30
2018-09-25T00:16:21.336Z,22.29
2018-09-25T00:16:58.512Z,22.29
2018-09-25T00:17:35.712Z,22.29
2018-09-25T00:18:12.842Z,22.29
2018-09-25T00:18:50.213Z,22.29
2018-09-25T00:19:27.618Z,22.27
2018-09-25T00:20:04.938Z,22.29
2018-09-25T00:20:42.176Z,22.29
2018-09-25T00:21:19.463Z,22.29
2018-09-25T00:21:56.677Z,22.28
2018-09-25T00:22:33.822Z,22.28
2018-09-25T00:23:11.012Z,22.29
2018-09-25T00:23:48.221Z,22.29
2018-09-25T00:24:25.572Z,22.29
2018-09-25T00:25:02.741Z,22.29
2018-09-25T00:25:39.864Z,22.27
2018-09-25T00:26:17.104Z,22.26
2018-09-25T00:26:54.295Z,22.25
2018-09-25T00:27:31.574Z,22.24
2018-09-25T00:28:08.753Z,22.24
2018-09-25T00:28:45.929Z,22.23
2018-09-25T00:29:23.248Z,22.22
2018-09-25T00:30:00.400Z,22.23
2018-09-25T00:30:37.663Z,22.22
2018-09-25T00:31:14.932Z,22.20
2018-09-25T00:31:52.208Z,22.20
2018-09-25T00:32:29.350Z,22.19
2018-09-25T00:33:06.576Z,22.19
2018-09-25T00:33:43.899Z,22.18
2018-09-25T00:34:21.102Z,22.17
2018-09-25T00:34:58.296Z,22.17
2018-09-25T00:35:35.528Z,22.17
2018-09-25T00:36:12.688Z,22.16
2018-09-25T00:36:49.918Z,22.15
2018-09-25T00:37:27.063Z,22.14
2018-09-25T00:38:04.242Z,22.14
2018-09-25T00:38:41.420Z,22.13
2018-09-25T00:39:18.649Z,22.14
2018-09-25T00:39:55.855Z,22.13
2018-09-25T00:40:32.983Z,22.13
2018-09-25T00:41:10.172Z,22.13
2018-09-25T00:41:47.368Z,22.13
2018-09-25T00:42:24.517Z,22.13
2018-09-25T00:43:01.778Z,22.12
2018-09-25T00:43:38.918Z,22.12
2018-09-25T00:44:16.180Z,22.11
2018-09-25T00:44:53.312Z,22.11
2018-09-25T00:45:30.396Z,22.11
2018-09-25T00:46:07.614Z,22.09
2018-09-25T00:46:44.900Z,22.11
2018-09-25T00:47:22.304Z,22.12
2018-09-25T00:47:59.586Z,22.13
2018-09-25T00:48:36.844Z,22.15
2018-09-25T00:49:14.092Z,22.16
2018-09-25T00:49:51.344Z,22.16
2018-09-25T00:50:28.579Z,22.15
2018-09-25T00:51:05.736Z,22.14
2018-09-25T00:51:42.901Z,22.13
2018-09-25T00:52:20.111Z,22.12
2018-09-25T00:52:57.286Z,22.12
2018-09-25T00:53:34.438Z,22.11
2018-09-25T00:54:11.625Z,22.10
2018-09-25T00:54:48.815Z,22.09
2018-09-25T00:55:26.134Z,22.08
2018-09-25T00:56:03.324Z,22.08
2018-09-25T00:56:40.520Z,22.08
2018-09-25T00:57:17.779Z,22.08
2018-09-25T00:57:54.971Z,22.08
2018-09-25T00:58:32.212Z,22.08
2018-09-25T00:59:09.479Z,22.08
2018-09-25T00:59:46.689Z,22.07
2018-09-25T01:00:23.956Z,22.07
2018-09-25T01:01:01.104Z,22.07
2018-09-25T01:01:38.274Z,22.07
2018-09-25T01:02:15.506Z,22.07
2018-09-25T01:02:52.743Z,22.06
2018-09-25T01:03:29.911Z,22.06
2018-09-25T01:04:07.124Z,22.06
2018-09-25T01:04:44.272Z,22.05
2018-09-25T01:05:21.449Z,22.05
2018-09-25T01:05:58.668Z,22.04
2018-09-25T01:06:35.844Z,22.04
2018-09-25T01:07:12.978Z,22.03
2018-09-25T01:07:50.164Z,22.03
2018-09-25T01:08:27.392Z,22.03
2018-09-25T01:09:04.727Z,22.03
2018-09-25T01:09:41.893Z,22.03
2018-09-25T01:10:19.119Z,22.04
2018-09-25T01:10:56.379Z,22.03
2018-09-25T01:11:33.525Z,22.03
2018-09-25T01:12:10.772Z,22.02
2018-09-25T01:12:47.923Z,22.02
2018-09-25T01:13:25.272Z,22.02
2018-09-25T01:14:02.530Z,22.03
2018-09-25T01:14:39.788Z,22.04
2018-09-25T01:15:16.964Z,22.03
2018-09-25T01:15:54.188Z,22.04
2018-09-25T01:16:31.328Z,22.03
2018-09-25T01:17:08.585Z,22.04
2018-09-25T01:17:45.871Z,22.04
2018-09-25T01:18:23.060Z,22.04
2018-09-25T01:19:00.232Z,22.03
2018-09-25T01:19:37.476Z,22.03
2018-09-25T01:20:14.543Z,22.02
2018-09-25T01:20:51.738Z,22.01
2018-09-25T01:21:28.912Z,22.00
2018-09-25T01:22:06.044Z,22.00
2018-09-25T01:22:43.269Z,21.99
2018-09-25T01:23:20.486Z,21.99
2018-09-25T01:23:57.719Z,21.99
2018-09-25T01:24:34.888Z,21.99
2018-09-25T01:25:12.084Z,21.99
2018-09-25T01:25:49.275Z,21.98
2018-09-25T01:26:26.503Z,21.98
2018-09-25T01:27:03.816Z,21.99
2018-09-25T01:27:41.119Z,22.02
2018-09-25T01:28:18.344Z,22.03
2018-09-25T01:28:55.586Z,22.04
2018-09-25T01:29:32.836Z,22.05
2018-09-25T01:30:10.092Z,22.07
2018-09-25T01:30:47.224Z,22.05
2018-09-25T01:31:24.359Z,22.05
2018-09-25T01:32:01.555Z,22.03
2018-09-25T01:32:38.798Z,22.05
2018-09-25T01:33:16.027Z,22.04
2018-09-25T01:33:53.274Z,22.04
2018-09-25T01:34:30.403Z,22.04
2018-09-25T01:35:07.574Z,22.03
2018-09-25T01:35:44.729Z,22.04
2018-09-25T01:36:21.857Z,22.03
2018-09-25T01:36:59.030Z,22.03
2018-09-25T01:37:36.248Z,22.03
2018-09-25T01:38:13.400Z,22.03
2018-09-25T01:38:50.559Z,22.04
2018-09-25T01:39:27.808Z,22.04
2018-09-25T01:40:05.036Z,22.07
2018-09-25T01:40:42.240Z,22.08
2018-09-25T01:41:19.474Z,22.09
2018-09-25T01:41:56.693Z,22.09
2018-09-25T01:42:33.875Z,22.12
2018-09-25T01:43:10.994Z,22.16
2018-09-25T01:43:48.253Z,22.17
2018-09-25T01:44:25.436Z,22.18
2018-09-25T01:45:02.742Z,22.19
2018-09-25T01:45:39.956Z,22.19
2018-09-25T01:46:17.114Z,22.19
2018-09-25T01:46:54.277Z,22.20
2018-09-25T01:47:31.524Z,22.20
2018-09-25T01:48:08.811Z,22.21
2018-09-25T01:48:46.045Z,22.21
2018-09-25T01:49:23.206Z,22.22
2018-09-25T01:50:00.416Z,22.22
2018-09-25T01:50:37.686Z,22.20
2018-09-25T01:51:14.862Z,22.16
2018-09-25T01:51:52.108Z,22.20
2018-09-25T01:52:29.336Z,22.20
2018-09-25T01:53:06.567Z,22.20
2018-09-25T01:53:43.744Z,22.18
2018-09-25T01:54:20.938Z,22.19
2018-09-25T01:54:58.208Z,22.18
2018-09-25T01:55:35.572Z,22.18
2018-09-25T01:56:12.839Z,22.17
2018-09-25T01:56:50.063Z,22.16
2018-09-25T01:57:27.200Z,22.15
2018-09-25T01:58:04.416Z,22.13
2018-09-25T01:58:41.630Z,22.13
2018-09-25T01:59:18.864Z,22.11
2018-09-25T01:59:56.108Z,22.09
2018-09-25T02:00:33.269Z,22.08
2018-09-25T02:01:10.418Z,22.06
2018-09-25T02:01:47.576Z,22.05
2018-09-25T02:02:24.820Z,22.04
2018-09-25T02:03:02.049Z,22.04
2018-09-25T02:03:39.286Z,22.04
2018-09-25T02:04:16.446Z,22.03
2018-09-25T02:04:53.710Z,22.03
2018-09-25T02:05:30.935Z,22.03
2018-09-25T02:06:08.107Z,22.02
2018-09-25T02:06:45.306Z,22.01
2018-09-25T02:07:22.488Z,22.00
2018-09-25T02:07:59.644Z,22.00
2018-09-25T02:08:36.999Z,21.99
2018-09-25T02:09:14.124Z,21.98
2018-09-25T02:09:51.400Z,21.98
2018-09-25T02:10:28.644Z,21.97
2018-09-25T02:11:05.880Z,21.96
2018-09-25T02:11:43.145Z,21.96
2018-09-25T02:12:20.386Z,21.95
2018-09-25T02:12:57.576Z,21.95
2018-09-25T02:13:34.788Z,21.95
2018-09-25T02:14:12.041Z,21.94
2018-09-25T02:14:49.292Z,21.94
2018-09-25T02:15:26.640Z,21.93
2018-09-25T02:16:04.003Z,21.94
2018-09-25T02:16:41.107Z,21.93
2018-09-25T02:17:18.346Z,21.95
2018-09-25T02:17:55.525Z,21.95
2018-09-25T02:18:32.733Z,21.95
2018-09-25T02:19:10.032Z,21.95
2018-09-25T02:19:47.242Z,21.95
2018-09-25T02:20:24.500Z,21.94
2018-09-25T02:21:01.648Z,21.94
2018-09-25T02:21:38.805Z,21.94
2018-09-25T02:22:16.158Z,21.94
2018-09-25T02:22:53.387Z,21.95
2018-09-25T02:23:30.618Z,21.94
2018-09-25T02:24:07.822Z,21.94
2018-09-25T02:24:45.006Z,21.94
2018-09-25T02:25:22.198Z,21.94
2018-09-25T02:25:59.476Z,21.92
2018-09-25T02:26:36.644Z,21.92
2018-09-25T02:27:13.946Z,21.92
2018-09-25T02:27:51.194Z,21.91
2018-09-25T02:28:28.346Z,21.91
2018-09-25T02:29:05.605Z,21.90
2018-09-25T02:29:42.806Z,21.89
2018-09-25T02:30:19.973Z,21.89
2018-09-25T02:30:57.158Z,21.89
2018-09-25T02:31:34.320Z,21.89
2018-09-25T02:32:11.538Z,21.89
2018-09-25T02:32:48.700Z,21.88
2018-09-25T02:33:25.951Z,21.88
2018-09-25T02:34:03.159Z,21.88
2018-09-25T02:34:40.313Z,21.88
2018-09-25T02:35:17.470Z,21.88
2018-09-25T02:35:54.618Z,21.88
2018-09-25T02:36:31.868Z,21.88
2018-09-25T02:37:09.127Z,21.87
2018-09-25T02:37:46.248Z,21.86
2018-09-25T02:38:23.387Z,21.86
2018-09-25T02:39:00.560Z,21.85
2018-09-25T02:39:37.782Z,21.85
2018-09-25T02:40:15.058Z,21.85
2018-09-25T02:40:52.308Z,21.91
2018-09-25T02:41:29.530Z,22.03
2018-09-25T02:42:06.688Z,22.09
2018-09-25T02:42:43.861Z,22.09
2018-09-25T02:43:21.089Z,22.07
2018-09-25T02:43:58.336Z,22.05
2018-09-25T02:44:35.513Z,22.00
2018-09-25T02:45:12.856Z,21.97
2018-09-25T02:45:50.104Z,21.94
2018-09-25T02:46:27.338Z,21.90
2018-09-25T02:47:04.476Z,21.86
2018-09-25T02:47:41.592Z,21.83
2018-09-25T02:48:18.734Z,21.80
2018-09-25T02:48:55.924Z,21.77
2018-09-25T02:49:33.079Z,21.76
2018-09-25T02:50:10.216Z,21.79
2018-09-25T02:50:47.478Z,21.80
2018-09-25T02:51:24.712Z,21.79
2018-09-25T02:52:01.910Z,21.82
2018-09-25T02:52:39.142Z,21.88
2018-09-25T02:53:16.371Z,21.94
2018-09-25T02:53:53.728Z,22.04
2018-09-25T02:54:30.952Z,22.12
2018-09-25T02:55:08.134Z,22.18
2018-09-25T02:55:45.352Z,22.22
2018-09-25T02:56:22.520Z,22.24
2018-09-25T02:56:59.725Z,22.27
2018-09-25T02:57:36.897Z,22.24
2018-09-25T02:58:14.050Z,22.16
2018-09-25T02:58:51.254Z,22.09
2018-09-25T02:59:28.454Z,22.03
2018-09-25T03:00:05.751Z,21.97
2018-09-25T03:00:42.888Z,21.90
2018-09-25T03:01:20.090Z,21.85
2018-09-25T03:01:57.355Z,21.80
2018-09-25T03:02:34.489Z,21.76
2018-09-25T03:03:11.643Z,21.73
2018-09-25T03:03:48.862Z,21.70
2018-09-25T03:04:26.126Z,21.69
2018-09-25T03:05:03.476Z,21.66
2018-09-25T03:05:40.769Z,21.56
2018-09-25T03:06:18.006Z,21.52
2018-09-25T03:06:55.117Z,21.49
2018-09-25T03:07:32.279Z,21.48
2018-09-25T03:08:09.526Z,21.47
2018-09-25T03:08:46.691Z,21.47
2018-09-25T03:09:23.908Z,21.47
2018-09-25T03:10:01.074Z,21.47
2018-09-25T03:10:38.365Z,21.46
2018-09-25T03:11:15.490Z,21.45
2018-09-25T03:11:52.707Z,21.45
2018-09-25T03:12:29.964Z,21.44
2018-09-25T03:13:07.100Z,21.43
2018-09-25T03:13:44.246Z,21.43
2018-09-25T03:14:21.430Z,21.42
2018-09-25T03:14:58.682Z,21.41
2018-09-25T03:15:36.017Z,21.41
2018-09-25T03:16:13.144Z,21.40
2018-09-25T03:16:50.303Z,21.40
2018-09-25T03:17:27.388Z,21.39
2018-09-25T03:18:04.599Z,21.39
2018-09-25T03:18:41.826Z,21.38
2018-09-25T03:19:18.981Z,21.37
2018-09-25T03:19:56.346Z,21.37
2018-09-25T03:20:33.520Z,21.36
2018-09-25T03:21:10.642Z,21.36
2018-09-25T03:21:47.773Z,21.35
2018-09-25T03:22:25.021Z,21.35
2018-09-25T03:23:02.160Z,21.35
2018-09-25T03:23:39.334Z,21.34
2018-09-25T03:24:16.692Z,21.34
2018-09-25T03:24:54.026Z,21.34
2018-09-25T03:25:31.305Z,21.33
2018-09-25T03:26:08.523Z,21.32
2018-09-25T03:26:45.788Z,21.31
2018-09-25T03:27:22.951Z,21.31
2018-09-25T03:28:00.060Z,21.31
2018-09-25T03:28:37.331Z,21.30
2018-09-25T03:29:14.563Z,21.30
2018-09-25T03:29:51.704Z,21.30
2018-09-25T03:30:28.899Z,21.29
2018-09-25T03:31:06.110Z,21.27
2018-09-25T03:31:43.201Z,21.28
2018-09-25T03:32:20.430Z,21.28
2018-09-25T03:32:57.630Z,21.27
2018-09-25T03:33:34.745Z,21.28
2018-09-25T03:34:12.016Z,21.27
2018-09-25T03:34:49.154Z,21.25
2018-09-25T03:35:26.270Z,21.26
2018-09-25T03:36:03.494Z,21.25
2018-09-25T03:36:40.643Z,21.25
2018-09-25T03:37:17.891Z,21.24
2018-09-25T03:37:55.076Z,21.24
2018-09-25T03:38:32.264Z,21.23
2018-09-25T03:39:09.421Z,21.23
2018-09-25T03:39:46.534Z,21.23
2018-09-25T03:40:23.721Z,21.22
2018-09-25T03:41:00.940Z,21.21
2018-09-25T03:41:38.099Z,21.21
2018-09-25T03:42:15.354Z,21.21
2018-09-25T03:42:52.499Z,21.21
2018-09-25T03:43:29.799Z,21.20
2018-09-25T03:44:06.988Z,21.20
2018-09-25T03:44:44.160Z,21.20
2018-09-25T03:45:21.418Z,21.19
2018-09-25T03:45:58.659Z,21.19
2018-09-25T03:46:35.904Z,21.18
2018-09-25T03:47:13.139Z,21.18
2018-09-25T03:47:50.311Z,21.18
2018-09-25T03:48:27.560Z,21.17
2018-09-25T03:49:04.803Z,21.17
2018-09-25T03:49:42.057Z,21.16
2018-09-25T03:50:19.254Z,21.17
2018-09-25T03:50:56.364Z,21.16
2018-09-25T03:51:33.560Z,21.17
2018-09-25T03:52:10.775Z,21.15
2018-09-25T03:52:47.888Z,21.15
2018-09-25T03:53:25.094Z,21.15
2018-09-25T03:54:02.366Z,21.15
2018-09-25T03:54:39.647Z,21.15
2018-09-25T03:55:16.895Z,21.14
2018-09-25T03:55:54.024Z,21.14
2018-09-25T03:56:31.201Z,21.14
2018-09-25T03:57:08.549Z,21.13
2018-09-25T03:57:45.786Z,21.13
2018-09-25T03:58:22.920Z,21.13
2018-09-25T03:59:00.068Z,21.13
2018-09-25T03:59:37.315Z,21.13
2018-09-25T04:00:14.739Z,21.12
2018-09-25T04:00:51.920Z,21.12
2018-09-25T04:01:29.222Z,21.11
2018-09-25T04:02:06.441Z,21.11
2018-09-25T04:02:43.691Z,21.11
2018-09-25T04:03:20.928Z,21.10
2018-09-25T04:03:58.107Z,21.09
2018-09-25T04:04:35.224Z,21.10
2018-09-25T04:05:12.582Z,21.09
2018-09-25T04:05:49.722Z,21.09
2018-09-25T04:06:26.987Z,21.09
2018-09-25T04:07:04.216Z,21.09
2018-09-25T04:07:41.393Z,21.08
2018-09-25T04:08:18.621Z,21.08
2018-09-25T04:08:55.765Z,21.07
2018-09-25T04:09:32.912Z,21.07
2018-09-25T04:10:10.171Z,21.08
2018-09-25T04:10:47.395Z,21.06
2018-09-25T04:11:24.643Z,21.07
2018-09-25T04:12:01.926Z,21.06
2018-09-25T04:12:39.330Z,21.06
2018-09-25T04:13:16.662Z,21.06
2018-09-25T04:13:53.858Z,21.05
2018-09-25T04:14:31.062Z,21.05
2018-09-25T04:15:08.235Z,21.05
2018-09-25T04:15:45.402Z,21.04
2018-09-25T04:16:22.616Z,21.05
2018-09-25T04:16:59.940Z,21.04
2018-09-25T04:17:37.091Z,21.03
2018-09-25T04:18:14.236Z,21.03
2018-09-25T04:18:51.446Z,21.03
2018-09-25T04:19:28.676Z,21.03
2018-09-25T04:20:05.956Z,21.03
2018-09-25T04:20:43.304Z,21.03
2018-09-25T04:21:20.612Z,21.02
2018-09-25T04:21:57.900Z,21.02
2018-09-25T04:22:35.121Z,21.01
2018-09-25T04:23:12.361Z,21.01
2018-09-25T04:23:49.531Z,21.01
2018-09-25T04:24:26.670Z,21.00
2018-09-25T04:25:03.927Z,21.01
2018-09-25T04:25:41.027Z,21.01
2018-09-25T04:26:18.123Z,21.00
2018-09-25T04:26:55.438Z,21.00
2018-09-25T04:27:32.726Z,20.99
2018-09-25T04:28:09.852Z,20.99
2018-09-25T04:28:47.000Z,20.99
2018-09-25T04:29:24.162Z,20.99
2018-09-25T04:30:01.304Z,20.98
2018-09-25T04:30:38.521Z,20.98
2018-09-25T04:31:15.701Z,20.98
2018-09-25T04:31:52.944Z,20.98
2018-09-25T04:32:30.093Z,20.98
2018-09-25T04:33:07.355Z,20.97
2018-09-25T04:33:44.502Z,20.97
2018-09-25T04:34:21.750Z,20.96
2018-09-25T04:34:59.122Z,20.96
2018-09-25T04:35:36.298Z,20.96
2018-09-25T04:36:13.408Z,20.96
2018-09-25T04:36:50.618Z,20.95
2018-09-25T04:37:27.805Z,20.95
2018-09-25T04:38:05.035Z,20.95
2018-09-25T04:38:42.272Z,20.95
2018-09-25T04:39:19.425Z,20.95
2018-09-25T04:39:56.591Z,20.94
2018-09-25T04:40:33.807Z,20.93
2018-09-25T04:41:10.971Z,20.94
2018-09-25T04:41:48.220Z,20.94
2018-09-25T04:42:25.507Z,20.93
2018-09-25T04:43:02.840Z,20.93
2018-09-25T04:43:40.165Z,20.91
2018-09-25T04:44:17.498Z,20.92
2018-09-25T04:44:54.743Z,20.92
2018-09-25T04:45:31.966Z,20.91
2018-09-25T04:46:09.057Z,20.92
2018-09-25T04:46:46.214Z,20.92
2018-09-25T04:47:23.385Z,20.91
2018-09-25T04:48:00.511Z,20.91
2018-09-25T04:48:37.707Z,20.92
2018-09-25T04:49:14.882Z,20.91
2018-09-25T04:49:52.079Z,20.90
2018-09-25T04:50:29.278Z,20.89
2018-09-25T04:51:06.431Z,20.89
2018-09-25T04:51:43.585Z,20.89
2018-09-25T04:52:20.774Z,20.89
2018-09-25T04:52:57.971Z,20.88
2018-09-25T04:53:35.270Z,20.88
2018-09-25T04:54:12.504Z,20.88
2018-09-25T04:54:49.728Z,20.88
2018-09-25T04:55:26.838Z,20.87
2018-09-25T04:56:04.025Z,20.88
2018-09-25T04:56:41.293Z,20.87
2018-09-25T04:57:18.577Z,20.87
2018-09-25T04:57:55.783Z,20.87
2018-09-25T04:58:33.037Z,20.86
2018-09-25T04:59:10.179Z,20.85
2018-09-25T04:59:47.350Z,20.86
2018-09-25T05:00:24.548Z,20.86
2018-09-25T05:01:01.726Z,20.86
2018-09-25T05:01:38.951Z,20.86
2018-09-25T05:02:16.056Z,20.85
2018-09-25T05:02:53.284Z,20.85
2018-09-25T05:03:30.384Z,20.85
2018-09-25T05:04:07.569Z,20.85
2018-09-25T05:04:44.790Z,20.84
2018-09-25T05:05:22.039Z,20.84
2018-09-25T05:05:59.210Z,20.84
2018-09-25T05:06:36.377Z,20.85
2018-09-25T05:07:13.635Z,20.83
2018-09-25T05:07:50.854Z,20.82
2018-09-25T05:08:28.011Z,20.75
2018-09-25T05:09:05.251Z,20.83
2018-09-25T05:09:42.395Z,20.83
2018-09-25T05:10:19.618Z,20.82
2018-09-25T05:10:56.880Z,20.82
2018-09-25T05:11:34.128Z,20.83
2018-09-25T05:12:11.292Z,20.81
2018-09-25T05:12:48.568Z,20.82
2018-09-25T05:13:25.748Z,20.82
2018-09-25T05:14:02.928Z,20.81
2018-09-25T05:14:40.089Z,20.81
2018-09-25T05:15:17.330Z,20.81
2018-09-25T05:15:54.564Z,20.79
2018-09-25T05:16:31.755Z,20.80
2018-09-25T05:17:08.887Z,20.81
2018-09-25T05:17:46.179Z,20.80
2018-09-25T05:18:23.375Z,20.80
2018-09-25T05:19:00.504Z,20.80
2018-09-25T05:19:37.656Z,20.80
2018-09-25T05:20:14.891Z,20.80
2018-09-25T05:20:52.049Z,20.80
2018-09-25T05:21:29.301Z,20.79
2018-09-25T05:22:06.563Z,20.80
2018-09-25T05:22:43.825Z,20.79
2018-09-25T05:23:21.163Z,20.79
2018-09-25T05:23:58.392Z,20.78
2018-09-25T05:24:35.590Z,20.79
2018-09-25T05:25:12.776Z,20.79
2018-09-25T05:25:50.141Z,20.78
2018-09-25T05:26:27.537Z,20.77
2018-09-25T05:27:05.012Z,20.78
2018-09-25T05:27:42.370Z,20.77
2018-09-25T05:28:19.635Z,20.75
2018-09-25T05:28:56.896Z,20.77
2018-09-25T05:29:34.072Z,20.76
2018-09-25T05:30:11.200Z,20.76
2018-09-25T05:30:48.440Z,20.76
2018-09-25T05:31:25.786Z,20.76
2018-09-25T05:32:02.954Z,20.76
2018-09-25T05:32:40.140Z,20.75
2018-09-25T05:33:17.341Z,20.75
2018-09-25T05:33:54.468Z,20.74
2018-09-25T05:34:31.740Z,20.75
2018-09-25T05:35:08.989Z,20.75
2018-09-25T05:35:46.146Z,20.74
2018-09-25T05:36:23.294Z,20.75
2018-09-25T05:37:00.542Z,20.75
2018-09-25T05:37:37.842Z,20.74
2018-09-25T05:38:15.033Z,20.73
2018-09-25T05:38:52.169Z,20.73
2018-09-25T05:39:29.320Z,20.74
2018-09-25T05:40:06.535Z,20.73
2018-09-25T05:40:43.737Z,20.74
2018-09-25T05:41:20.882Z,20.73
2018-09-25T05:41:58.122Z,20.73
2018-09-25T05:42:35.355Z,20.73
2018-09-25T05:43:12.552Z,20.73
2018-09-25T05:43:49.758Z,20.73
2018-09-25T05:44:27.010Z,20.72
2018-09-25T05:45:04.174Z,20.72
2018-09-25T05:45:41.404Z,20.72
2018-09-25T05:46:18.670Z,20.71
2018-09-25T05:46:55.763Z,20.70
2018-09-25T05:47:32.967Z,20.72
2018-09-25T05:48:10.233Z,20.71
2018-09-25T05:48:47.526Z,20.69
2018-09-25T05:49:24.942Z,20.71
2018-09-25T05:50:02.400Z,20.70
2018-09-25T05:50:39.739Z,20.70
2018-09-25T05:51:17.105Z,20.70
2018-09-25T05:51:54.514Z,20.70
2018-09-25T05:52:32.011Z,20.67
2018-09-25T05:53:09.464Z,20.70
2018-09-25T05:53:47.230Z,20.69
2018-09-25T05:54:24.556Z,20.69
2018-09-25T05:55:01.939Z,20.68
2018-09-25T05:55:39.181Z,20.68
2018-09-25T05:56:16.414Z,20.68
2018-09-25T05:56:53.611Z,20.68
2018-09-25T05:57:30.797Z,20.68
2018-09-25T05:58:07.944Z,20.66
2018-09-25T05:58:45.193Z,20.68
2018-09-25T05:59:22.378Z,20.68
2018-09-25T05:59:59.551Z,20.65
2018-09-25T06:00:36.713Z,20.68
2018-09-25T06:01:13.870Z,20.68
2018-09-25T06:01:50.960Z,20.68
2018-09-25T06:02:28.160Z,20.67
2018-09-25T06:03:05.404Z,20.67
2018-09-25T06:03:42.759Z,20.66
2018-09-25T06:04:20.156Z,20.68
2018-09-25T06:04:57.386Z,20.68
2018-09-25T06:05:34.725Z,20.67
2018-09-25T06:06:12.096Z,20.67
2018-09-25T06:06:49.456Z,20.68
2018-09-25T06:07:26.620Z,20.68
2018-09-25T06:08:03.803Z,20.68
2018-09-25T06:08:41.002Z,20.70
2018-09-25T06:09:18.185Z,20.69
2018-09-25T06:09:55.413Z,20.70
2018-09-25T06:10:32.704Z,20.69
2018-09-25T06:11:09.860Z,20.60
2018-09-25T06:11:47.066Z,20.70
2018-09-25T06:12:24.253Z,20.69
2018-09-25T06:13:01.409Z,20.68
2018-09-25T06:13:38.652Z,20.68
2018-09-25T06:14:15.900Z,20.69
2018-09-25T06:14:53.106Z,20.69
2018-09-25T06:15:30.369Z,20.68
2018-09-25T06:16:07.526Z,20.68
2018-09-25T06:16:44.688Z,20.67
2018-09-25T06:17:21.950Z,20.68
2018-09-25T06:17:59.175Z,20.67
2018-09-25T06:18:36.459Z,20.66
2018-09-25T06:19:13.918Z,20.66
2018-09-25T06:19:51.137Z,20.66
2018-09-25T06:20:28.391Z,20.65
2018-09-25T06:21:05.654Z,20.64
2018-09-25T06:21:42.883Z,20.64
2018-09-25T06:22:20.063Z,20.64
2018-09-25T06:22:57.329Z,20.63
2018-09-25T06:23:34.635Z,20.63
2018-09-25T06:24:11.769Z,20.63
2018-09-25T06:24:48.955Z,20.62
2018-09-25T06:25:26.212Z,20.62
2018-09-25T06:26:03.440Z,20.62
2018-09-25T06:26:40.698Z,20.62
2018-09-25T06:27:17.971Z,20.61
2018-09-25T06:27:55.318Z,20.59
2018-09-25T06:28:32.523Z,20.61
2018-09-25T06:29:09.704Z,20.61
2018-09-25T06:29:46.915Z,20.61
2018-09-25T06:30:24.180Z,20.60
2018-09-25T06:31:01.363Z,20.60
2018-09-25T06:31:38.560Z,20.60
2018-09-25T06:32:15.740Z,20.60
2018-09-25T06:32:52.872Z,20.59
2018-09-25T06:33:30.106Z,20.60
2018-09-25T06:34:07.400Z,20.59
2018-09-25T06:34:44.735Z,20.60
2018-09-25T06:35:21.965Z,20.60
2018-09-25T06:35:59.217Z,20.60
2018-09-25T06:36:36.437Z,20.60
2018-09-25T06:37:13.629Z,20.60
2018-09-25T06:37:50.956Z,20.60
2018-09-25T06:38:28.171Z,20.60
2018-09-25T06:39:05.400Z,20.61
2018-09-25T06:39:42.600Z,20.50
2018-09-25T06:40:19.740Z,20.61
2018-09-25T06:40:56.979Z,20.61
2018-09-25T06:41:34.255Z,20.60
2018-09-25T06:42:11.482Z,20.60
2018-09-25T06:42:48.751Z,20.60
2018-09-25T06:43:25.950Z,20.60
2018-09-25T06:44:03.192Z,20.60
2018-09-25T06:44:40.343Z,20.60
2018-09-25T06:45:17.578Z,20.60
2018-09-25T06:45:54.780Z,20.60
2018-09-25T06:46:31.877Z,20.59
2018-09-25T06:47:09.159Z,20.59
2018-09-25T06:47:46.329Z,20.58
2018-09-25T06:48:23.600Z,20.59
2018-09-25T06:49:00.792Z,20.59
2018-09-25T06:49:38.000Z,20.59
2018-09-25T06:50:15.196Z,20.59
2018-09-25T06:50:52.316Z,20.59
2018-09-25T06:51:29.522Z,20.58
2018-09-25T06:52:06.663Z,20.59
2018-09-25T06:52:43.798Z,20.58
2018-09-25T06:53:20.971Z,20.60
2018-09-25T06:53:58.123Z,20.60
2018-09-25T06:54:35.283Z,20.60
2018-09-25T06:55:12.734Z,20.59
2018-09-25T06:55:49.990Z,20.61
2018-09-25T06:56:27.224Z,20.61
2018-09-25T06:57:04.420Z,20.62
2018-09-25T06:57:41.610Z,20.62
2018-09-25T06:58:18.744Z,20.63
2018-09-25T06:58:55.903Z,20.63
2018-09-25T06:59:33.148Z,20.64
2018-09-25T07:00:10.379Z,20.64
2018-09-25T07:00:47.456Z,20.64
2018-09-25T07:01:24.699Z,20.63
2018-09-25T07:02:01.825Z,20.64
2018-09-25T07:02:39.104Z,20.64
2018-09-25T07:03:16.342Z,20.63
2018-09-25T07:03:53.462Z,20.64
2018-09-25T07:04:30.711Z,20.63
2018-09-25T07:05:07.976Z,20.63
2018-09-25T07:05:45.125Z,20.63
2018-09-25T07:06:22.268Z,20.63
2018-09-25T07:06:59.506Z,20.62
2018-09-25T07:07:36.655Z,20.62
2018-09-25T07:08:13.830Z,20.62
2018-09-25T07:08:51.061Z,20.62
2018-09-25T07:09:28.307Z,20.63
2018-09-25T07:10:05.804Z,20.63
2018-09-25T07:10:42.965Z,20.51
2018-09-25T07:11:20.168Z,20.63
2018-09-25T07:11:57.334Z,20.65
2018-09-25T07:12:34.643Z,20.63
2018-09-25T07:13:11.746Z,20.63
2018-09-25T07:13:48.958Z,20.63
2018-09-25T07:14:26.049Z,20.63
2018-09-25T07:15:03.248Z,20.63
2018-09-25T07:15:40.367Z,20.63
2018-09-25T07:16:17.578Z,20.61
2018-09-25T07:16:54.915Z,20.62
2018-09-25T07:17:32.209Z,20.61
2018-09-25T07:18:09.388Z,20.61
2018-09-25T07:18:46.646Z,20.61
2018-09-25T07:19:23.886Z,20.61
2018-09-25T07:20:01.170Z,20.61
2018-09-25T07:20:38.404Z,20.61
2018-09-25T07:21:15.652Z,20.61
2018-09-25T07:21:52.903Z,20.61
2018-09-25T07:22:30.096Z,20.61
2018-09-25T07:23:07.310Z,20.61
2018-09-25T07:23:44.532Z,20.60
2018-09-25T07:24:21.782Z,20.60
2018-09-25T07:24:58.963Z,20.60
2018-09-25T07:25:36.150Z,20.60
2018-09-25T07:26:13.289Z,20.60
2018-09-25T07:26:50.494Z,20.59
2018-09-25T07:27:27.742Z,20.58
2018-09-25T07:28:04.984Z,20.59
2018-09-25T07:28:42.214Z,20.60
2018-09-25T07:29:19.504Z,20.60
2018-09-25T07:29:56.653Z,20.60
2018-09-25T07:30:33.866Z,20.60
2018-09-25T07:31:11.093Z,20.60
2018-09-25T07:31:48.482Z,20.60
2018-09-25T07:32:25.731Z,20.61
2018-09-25T07:33:02.888Z,20.61
2018-09-25T07:33:40.041Z,20.59
2018-09-25T07:34:17.240Z,20.58
2018-09-25T07:34:54.426Z,20.57
2018-09-25T07:35:31.560Z,20.55
2018-09-25T07:36:08.756Z,20.56
2018-09-25T07:36:45.961Z,20.56
2018-09-25T07:37:23.204Z,20.57
2018-09-25T07:38:00.428Z,20.57
2018-09-25T07:38:37.568Z,20.57
2018-09-25T07:39:14.763Z,20.58
2018-09-25T07:39:52.007Z,20.58
2018-09-25T07:40:29.172Z,20.59
2018-09-25T07:41:06.355Z,20.59
2018-09-25T07:41:43.445Z,20.61
2018-09-25T07:42:20.641Z,20.61
2018-09-25T07:42:57.851Z,20.62
2018-09-25T07:43:34.960Z,20.62
2018-09-25T07:44:12.132Z,20.61
2018-09-25T07:44:49.280Z,20.63
2018-09-25T07:45:26.528Z,20.65
2018-09-25T07:46:03.657Z,20.68
2018-09-25T07:46:41.049Z,20.71
2018-09-25T07:47:18.287Z,20.74
2018-09-25T07:47:55.539Z,20.78
2018-09-25T07:48:32.692Z,20.79
2018-09-25T07:49:09.806Z,20.85
2018-09-25T07:49:46.982Z,20.89
2018-09-25T07:50:24.192Z,20.93
2018-09-25T07:51:01.361Z,20.93
2018-09-25T07:51:38.599Z,20.96
2018-09-25T07:52:15.846Z,21.01
2018-09-25T07:52:53.145Z,20.98
2018-09-25T07:53:30.342Z,21.00
2018-09-25T07:54:07.518Z,21.02
2018-09-25T07:54:44.669Z,21.06
2018-09-25T07:55:21.914Z,21.08
2018-09-25T07:55:59.153Z,21.10
2018-09-25T07:56:36.397Z,21.09
2018-09-25T07:57:13.573Z,21.07
2018-09-25T07:57:50.807Z,21.08
2018-09-25T07:58:27.978Z,21.12
2018-09-25T07:59:05.064Z,21.16